« 趣味的航空路誌改訂情報 2018/7/19 thu | トップページ | 2018千歳基地航空祭【フライト編】 千歳飛行場 2018/7/22 sun »

2018/07/24

2018千歳基地航空祭【B.I.編】 千歳飛行場 2018/7/22 sun

政府専用機最後の夏となる千歳。また千歳市市政施行60周年の記念の年。事前からマニアのワクワクが止まらない。酷暑の夏、避暑に訪れた千歳は、まさに涼しい夏から始まった。

RJCC 212230Z 34006KT 3500 BR FEW010 BKN/// 23/21 Q1005

20180722_rjcc_00bi

7時に開門して、ほどなくの列線は、低い雲に靄。おいおい大丈夫かと心配になります。

20180722_rjcc_01bi

今年の列線は、新米機体のオンパレード。

20180722_rjcc_02bi

シグナスさんのおかげで、後ろからも撮影することが出来ました。

RJCC 220430Z 35017KT 9999 FEW013 BKN050 BKN/// 23/17 Q1005

20180722_rjcc_03bi

心配されていた雲も、午後から徐々に履けて来て、ブルー演技開始。

20180722_rjcc_04bi665745

RWは、変わらず36

20180722_rjcc_05bi

粛々とウエストランウェイへ

20180722_rjcc_06bi

みんな見たいスモーク・チェック

20180722_rjcc_07bi665745

風が17kt インディビジュアル・テイクオフでスタートです。

20180722_rjcc_08bi

連続離陸の妙味を見せます。

20180722_rjcc_09bi265692

間隔が短くて、追いつかなーい

20180722_rjcc_10bi465731

4番機は捻って、すぐさま先行機を追います。

20180722_rjcc_11bi

ぐるっと廻ってダイヤモンドで進入

20180722_rjcc_12bi

ダーティーターン

20180722_rjcc_13bi

すかさず5番機、6番機の離陸

20180722_rjcc_14bi

6番機のロールオン・テイクオフ

20180722_rjcc_15bi

20180722_rjcc_16bi

5番機のローアングル・キューバン

20180722_rjcc_17bi

ファン・ブレイク

20180722_rjcc_18bi

フォー・ポイント・ロール

20180722_rjcc_19bi

3区分

20180722_rjcc_20bi

20180722_rjcc_21bi

青空がところどころ覗いていますが、背景の雲でスモークが見づらい。

20180722_rjcc_22bi

チェンジ・オーバー・ターン

20180722_rjcc_23bi

20180722_rjcc_24bi

20180722_rjcc_25bi

インバーテッド&コンテュニアス・ロール

20180722_rjcc_26bi

サンライズ

20180722_rjcc_27bi

これが旭日

20180722_rjcc_28bi

スロー・ロール

20180722_rjcc_29bi

背後から・・

20180722_rjcc_30bi

20180722_rjcc_31bi

20180722_rjcc_32bi

レター・エイト

20180722_rjcc_33bi

20180722_rjcc_34bi

ハーフ・スロー・ロール

20180722_rjcc_35bi

トレール・トゥ・ダイヤモンド・ロール

20180722_rjcc_36bi

ポジションスモークを出して、はけます。

20180722_rjcc_37bi

右から・・

20180722_rjcc_38bi

左から・・

20180722_rjcc_39bi

オポジット・コンティニュアス・ロール 残念・・

RJCC 220500Z 34017KT 9999 FEW020 BKN050 BKN/// 23/16 Q1005 RMK 1ST020 5CU050 A2968

20180722_rjcc_40bi

4機ダイヤモンドで進入して

20180722_rjcc_41bi

1番機、4番機がよいしょ

20180722_rjcc_42bi

2番機、3番機がよいしょ

20180722_rjcc_43bi

フォー・シップ・インバート

20180722_rjcc_44bi

スラント・キューピッド

20180722_rjcc_45bi

雲に融けて見えねぇ

20180722_rjcc_46bi

クロス 日の丸に融けて見えねぇ

20180722_rjcc_47bi

シグナスさん巡航ミサイル発射の図 コイツか、こんなところで脚立に乗っているのは・・

20180722_rjcc_48bi

シングル・クローバーリーフ・ターン

20180722_rjcc_49bi

20180722_rjcc_50bi

ダイヤモンドからアローヘッドへ

20180722_rjcc_51bi

課目変更

20180722_rjcc_52bi

20180722_rjcc_53bi

20180722_rjcc_54bi

20180722_rjcc_55bi

20180722_rjcc_56bi

デルタ・スリー・シックスティ・ターン

20180722_rjcc_57bi

会場右へ上昇して・・

20180722_rjcc_58bi

隊形変換

20180722_rjcc_59bi

20180722_rjcc_60bi

20180722_rjcc_61bi

サクラ

20180722_rjcc_62bi

土手向こうから・・

20180722_rjcc_63bi

クロスは見えんだ

20180722_rjcc_64bi

20180722_rjcc_65bi

グイーンと上昇して・・

20180722_rjcc_66bi

20180722_rjcc_67bi

タック・クロスI タック・ワーン! タック・ワーン!

20180722_rjcc_68bi

さあクライマックス

20180722_rjcc_69bi

20180722_rjcc_70bi

ローリング・コンバット・ピッチ

20180722_rjcc_71bi

20180722_rjcc_72bi

20180722_rjcc_73bi

コーク・スクリュー

20180722_rjcc_74bija703a

ANA64 RJCC-RJTT JA703A B777-281

民航運航再開

20180722_rjcc_75bi665745

#1

20180722_rjcc_76bi065787

#2

20180722_rjcc_77bi265692

#3

20180722_rjcc_78bi465731

#4

20180722_rjcc_79bi065790

#5

20180722_rjcc_80bi165666

#6

20180722_rjcc_81bi

747FINALを飾る素晴らしいフライトでした。

RJCC 220530Z 35015KT 9999 FEW030 SCT070 BKN/// 25/15 Q1005

|

« 趣味的航空路誌改訂情報 2018/7/19 thu | トップページ | 2018千歳基地航空祭【フライト編】 千歳飛行場 2018/7/22 sun »

BI」カテゴリの記事

千歳飛行場」カテゴリの記事

コメント

コメントを書く



(ウェブ上には掲載しません)


コメントは記事投稿者が公開するまで表示されません。



トラックバック


この記事へのトラックバック一覧です: 2018千歳基地航空祭【B.I.編】 千歳飛行場 2018/7/22 sun:

« 趣味的航空路誌改訂情報 2018/7/19 thu | トップページ | 2018千歳基地航空祭【フライト編】 千歳飛行場 2018/7/22 sun »